VILK/LKO METAR and TAF weather

Enter ICAO airport designator
Station Type Date Time Source
VILK METAR 2021/05/14 14:00 UTC NOAA

VILK 141400Z 00000KT 4000 HZ SCT020 BKN100 32/20 Q1001 NOSIG


Station Type Date Time Source
VILK Decoded METAR 2021/05/14 14:00 UTC NOAA

Lucknow / Amausi, India (VILK) 26-45N 080-53E 128M
May 14, 2021 - 10:00 AM EDT / 2021.05.14 1400 UTC
Wind: Calm:0
Visibility: 2 mile(s):0
Sky conditions: mostly cloudy
Weather: haze
Temperature: 89 F (32 C)
Dew Point: 68 F (20 C)
Relative Humidity: 49%
Pressure (altimeter): 29.56 in. Hg (1001 hPa)
ob: VILK 141400Z 00000KT 4000 HZ SCT020 BKN100 32/20 Q1001 NOSIG
cycle: 14

Station Type Date Time Source
VILK TAF 2021/05/14 12:21 UTC NOAA

TAF VILK 141100Z 1412/1518 31004KT 5000 HZ FEW100
TEMPO 1417/1421 29010G20KT 2000 -TSRA -RA FEW030CB OVC090
BECMG 1422/1424 VRB02KT 3000 HZ/BR SCT020 BKN100
BECMG 1503/1505 29005KT 5000 HZ SCT020
BECMG 1514/1516 VRB02KT 3000 HZ FEW100

Example: see airport list